^^
Mint Hill Weather Station Historical Data
 
Daily Summary for September 17, 2014 Units:  English    Metric   Both
« Previous Day
Next Day »
Daily Weekly Monthly Yearly Custom
  Current: High: Low: Average:
Temperature: 64.2 °F 66.3 °F 63.8 °F 64.9 °F
Dew Point: 63.6 °F 65.4 °F 62.9 °F 64.1 °F
Humidity: 98% 98% 97% 97%
Wind Speed: 1.0mph 1.0mph 0.0mph 0.1mph
Wind Gust: 1.1mph 2.3mph - -
WindNNW - - West
Pressure: 29.95 in 29.99 in 29.95 in -
Precipitation: 0.01 in      
Historical Graphs
 
 
Tabular Data for September 17, 2014
Time Temperature Dew Point Pressure Wind Wind Speed Wind Gust Humidity Rainfall Rate (Hourly) solar Conditions
00:01 66.2 °F 65.3 °F 29.98 in ESE 0.1 mph 1.1 mph 97% 0.00 in 0.0 W/m2 RA
00:06 66.3 °F 65.4 °F 29.99 in Calm     97% 0.00 in 0.0 W/m2 RA
00:11 66.2 °F 65.3 °F 29.99 in Calm     97% 0.00 in 0.0 W/m2 OVC
00:16 66.3 °F 65.4 °F 29.99 in Calm     97% 0.00 in 0.0 W/m2 OVC
00:21 66.2 °F 65.3 °F 29.99 in Calm     97% 0.00 in 0.0 W/m2 OVC
00:26 66.1 °F 65.2 °F 29.99 in Calm     97% 0.00 in 0.0 W/m2 OVC
00:31 66.1 °F 65.2 °F 29.98 in Calm     97% 0.00 in 0.0 W/m2 OVC
00:36 66.1 °F 65.2 °F 29.98 in Calm     97% 0.00 in 0.0 W/m2 OVC
00:41 66.1 °F 65.2 °F 29.98 in Calm     97% 0.00 in 0.0 W/m2 OVC
00:46 66.0 °F 65.1 °F 29.99 in Calm     97% 0.00 in 0.0 W/m2 OVC
00:51 65.9 °F 65.0 °F 29.98 in Calm     97% 0.00 in 0.0 W/m2 OVC
00:56 65.9 °F 65.3 °F 29.98 in Calm     98% 0.00 in 0.0 W/m2 OVC
01:01 65.9 °F 65.3 °F 29.98 in WSW 0.6 mph 2.0 mph 98% 0.00 in 0.0 W/m2 OVC
01:06 65.8 °F 65.2 °F 29.98 in WSW 0.1 mph 2.3 mph 98% 0.00 in 0.0 W/m2 OVC
01:11 65.8 °F 65.2 °F 29.98 in Calm   1.1 mph 98% 0.00 in 0.0 W/m2 OVC
01:16 65.8 °F 65.2 °F 29.98 in Calm     98% 0.00 in 0.0 W/m2 OVC
01:21 65.8 °F 65.2 °F 29.98 in Calm     98% 0.00 in 0.0 W/m2 OVC
01:26 65.8 °F 64.9 °F 29.98 in Calm     97% 0.00 in 0.0 W/m2 OVC
01:31 65.8 °F 64.9 °F 29.97 in Calm     97% 0.00 in 0.0 W/m2 OVC
01:36 65.8 °F 64.9 °F 29.97 in Calm     97% 0.00 in 0.0 W/m2 OVC
01:41 65.8 °F 64.9 °F 29.98 in WSW 0.7 mph 1.1 mph 97% 0.00 in 0.0 W/m2 OVC
01:46 65.7 °F 64.8 °F 29.98 in WSW 0.3 mph 2.3 mph 97% 0.00 in 0.0 W/m2 OVC
01:51 65.7 °F 64.8 °F 29.98 in WSW 0.1 mph 1.1 mph 97% 0.00 in 0.0 W/m2 OVC
01:56 65.6 °F 64.7 °F 29.97 in Calm   1.1 mph 97% 0.00 in 0.0 W/m2 OVC
02:01 65.6 °F 64.7 °F 29.97 in Calm     97% 0.00 in 0.0 W/m2 OVC
02:06 65.5 °F 64.6 °F 29.97 in Calm     97% 0.00 in 0.0 W/m2 FEW
02:11 65.4 °F 64.5 °F 29.98 in Calm     97% 0.00 in 0.0 W/m2 FEW
02:16 65.4 °F 64.5 °F 29.97 in Calm     97% 0.00 in 0.0 W/m2 FEW
02:21 65.2 °F 64.3 °F 29.97 in Calm     97% 0.00 in 0.0 W/m2 FEW
02:26 65.2 °F 64.3 °F 29.97 in Calm     97% 0.00 in 0.0 W/m2 FEW
02:32 65.0 °F 64.1 °F 29.97 in Calm     97% 0.00 in 0.0 W/m2 FEW
02:37 64.9 °F 64.0 °F 29.97 in Calm     97% 0.00 in 0.0 W/m2 FEW
02:38 64.9 °F 64.0 °F 29.96 in Calm     97% 0.00 in 0.0 W/m2 FEW
02:43 64.8 °F 63.9 °F 29.96 in NNW 0.5 mph 2.3 mph 97% 0.01 in 0.0 W/m2 RA
02:48 64.7 °F 63.8 °F 29.96 in Calm     97% 0.01 in 0.0 W/m2 RA
02:53 64.6 °F 63.7 °F 29.97 in Calm     97% 0.01 in 0.0 W/m2 FEW
02:58 64.5 °F 63.6 °F 29.96 in Calm     97% 0.01 in 0.0 W/m2 FEW
03:01 64.5 °F 63.6 °F 29.97 in Calm     97% 0.01 in 0.0 W/m2 FEW
03:06 64.4 °F 63.5 °F 29.96 in Calm     97% 0.01 in 0.0 W/m2 CLR
03:08 64.3 °F 63.4 °F 29.96 in Calm     97% 0.01 in 0.0 W/m2 CLR
03:13 64.3 °F 63.4 °F 29.96 in Calm     97% 0.01 in 0.0 W/m2 CLR
03:18 64.2 °F 63.3 °F 29.96 in Calm     97% 0.01 in 0.0 W/m2 CLR
03:23 64.2 °F 63.3 °F 29.96 in Calm     97% 0.01 in 0.0 W/m2 CLR
03:28 64.1 °F 63.2 °F 29.96 in Calm     97% 0.01 in 0.0 W/m2 CLR
03:33 64.1 °F 63.2 °F 29.95 in Calm     97% 0.01 in 0.0 W/m2 CLR
03:38 64.0 °F 63.1 °F 29.95 in Calm     97% 0.01 in 0.0 W/m2 CLR
03:43 64.0 °F 63.1 °F 29.95 in Calm     97% 0.00 in 0.0 W/m2 CLR
03:48 64.0 °F 63.1 °F 29.95 in Calm     97% 0.00 in 0.0 W/m2 CLR
03:53 64.0 °F 63.1 °F 29.96 in Calm     97% 0.00 in 0.0 W/m2 CLR
03:58 64.0 °F 63.1 °F 29.96 in NNW 0.4 mph 1.1 mph 97% 0.00 in 0.0 W/m2 CLR
04:03 64.0 °F 63.1 °F 29.96 in Calm     97% 0.00 in 0.0 W/m2 FEW
04:08 64.0 °F 63.1 °F 29.95 in Calm     97% 0.00 in 0.0 W/m2 FEW
04:13 64.0 °F 63.4 °F 29.95 in NNW 0.1 mph 1.1 mph 98% 0.00 in 0.0 W/m2 FEW
04:18 64.0 °F 63.4 °F 29.95 in Calm     98% 0.00 in 0.0 W/m2 FEW
04:23 64.0 °F 63.4 °F 29.95 in Calm     98% 0.00 in 0.0 W/m2 FEW
04:28 64.0 °F 63.4 °F 29.95 in Calm     98% 0.00 in 0.0 W/m2 FEW
04:33 64.0 °F 63.4 °F 29.95 in Calm     98% 0.00 in 0.0 W/m2 FEW
04:38 63.9 °F 63.3 °F 29.95 in Calm     98% 0.00 in 0.0 W/m2 FEW
04:43 63.9 °F 63.0 °F 29.96 in Calm     97% 0.00 in 0.0 W/m2 FEW
04:48 63.9 °F 63.0 °F 29.96 in Calm     97% 0.00 in 0.0 W/m2 FEW
04:53 63.8 °F 62.9 °F 29.96 in Calm     97% 0.00 in 0.0 W/m2 FEW
04:58 63.8 °F 62.9 °F 29.95 in Calm     97% 0.00 in 0.0 W/m2 FEW
05:03 63.9 °F 63.3 °F 29.95 in Calm     98% 0.00 in 0.0 W/m2 OVC
05:08 64.0 °F 63.4 °F 29.96 in Calm     98% 0.00 in 0.0 W/m2 OVC
05:13 64.1 °F 63.5 °F 29.96 in Calm     98% 0.00 in 0.0 W/m2 OVC
05:18 64.1 °F 63.5 °F 29.95 in Calm     98% 0.00 in 0.0 W/m2 OVC
05:23 64.1 °F 63.5 °F 29.95 in Calm     98% 0.00 in 0.0 W/m2 OVC
05:28 64.2 °F 63.6 °F 29.95 in NNW 1.0 mph 1.1 mph 98% 0.00 in 0.0 W/m2 OVC
Mint Hill, North Carolina, USA
Compliments of Weather Underground